Time;durP1;ratioP1;P1;durP2;ratioP2;P2;SDS_P1;SDS_P2;PMS_P1;PMS_P2;Temp;Humidity;BMP_temperature;BMP_pressure;BME280_temperature;BME280_humidity;BME280_pressure;Samples;Min_cycle;Max_cycle;Signal;HPM_P1;HPM_P2
2023/03/10 00:01:09;;;;;;;;;;;;;;;9.88;89.79;100668.00;4773518;30;20002;-51
2023/03/10 00:03:35;;;;;;;;;;;;;;;9.64;90.74;100667.59;4789310;30;20015;-51
2023/03/10 00:06:01;;;;;;;;;;;;;;;9.77;91.03;100658.75;4781683;29;20325;-52
2023/03/10 00:08:27;;;;;;;;;;;;;;;9.77;90.76;100659.59;4776662;30;19982;-52
2023/03/10 00:10:53;;;;;;;;;;;;;;;9.73;91.40;100642.31;4783997;29;20000;-51
2023/03/10 00:13:19;;;;;;;;;;;;;;;9.79;91.50;100656.72;4776349;30;20009;-51
2023/03/10 00:15:44;;;;;;;;;;;;;;;9.73;91.78;100711.81;4777127;30;20012;-51
2023/03/10 00:18:10;;;;;;;;;;;;;;;9.77;91.01;100710.38;4786248;30;20020;-50
2023/03/10 00:20:36;;;;;;;;;;;;;;;9.75;91.45;100677.66;4786760;30;19918;-52
2023/03/10 00:23:02;;;;;;;;;;;;;;;9.91;90.38;100663.09;4801623;29;19921;-53
2023/03/10 00:25:28;;;;;;;;;;;;;;;9.78;90.83;100655.06;4807253;29;20015;-50
2023/03/10 00:27:54;;;;;;;;;;;;;;;9.59;92.33;100654.00;4804545;29;19973;-52
2023/03/10 00:30:19;;;;;;;;;;;;;;;9.56;93.12;100659.78;4788735;30;19980;-50
2023/03/10 00:32:45;;;;;;;;;;;;;;;9.67;92.37;100663.69;4784950;29;20061;-50
2023/03/10 00:35:11;;;;;;;;;;;;;;;9.74;92.47;100661.84;4779021;29;19931;-51
2023/03/10 00:37:37;;;;;;;;;;;;;;;9.66;92.80;100660.22;4776065;30;20388;-51
2023/03/10 00:40:06;;;;;;;;;;;;;;;9.77;92.25;100664.94;4773173;29;20013;-55
2023/03/10 00:42:32;;;;;;;;;;;;;;;9.68;93.11;100651.97;4766375;30;20491;-45
2023/03/10 00:44:58;;;;;;;;;;;;;;;9.60;93.50;100652.97;4801367;29;20007;-47
2023/03/10 00:47:24;;;;;;;;;;;;;;;9.51;94.38;100667.59;4784183;29;19921;-47
2023/03/10 00:49:50;;;;;;;;;;;;;;;9.72;93.72;100672.75;4771945;30;20297;-47
2023/03/10 00:52:15;;;;;;;;;;;;;;;9.50;94.20;100672.09;4788311;30;19924;-46
2023/03/10 00:54:41;;;;;;;;;;;;;;;9.67;93.40;100690.44;4787983;30;20410;-50
2023/03/10 00:57:07;;;;;;;;;;;;;;;9.85;92.85;100697.84;4788219;30;19957;-46
2023/03/10 00:59:33;;;;;;;;;;;;;;;9.81;93.19;100701.94;4782208;30;19954;-48
2023/03/10 01:01:59;;;;;;;;;;;;;;;9.72;92.50;100694.13;4788916;30;19994;-47
2023/03/10 01:04:25;;;;;;;;;;;;;;;9.52;93.84;100683.41;4788230;30;19923;-50
2023/03/10 01:06:51;;;;;;;;;;;;;;;9.43;95.01;100681.94;4799520;29;19974;-47
2023/03/10 01:09:18;;;;;;;;;;;;;;;9.61;94.11;100681.38;4796540;29;19921;-46
2023/03/10 01:11:44;;;;;;;;;;;;;;;9.71;94.34;100663.06;4788404;30;19918;-45
2023/03/10 01:14:11;;;;;;;;;;;;;;;9.51;94.87;100665.72;4788091;30;19925;-46
2023/03/10 01:16:37;;;;;;;;;;;;;;;9.82;94.65;100640.25;4788466;30;19936;-49
2023/03/10 01:19:03;;;;;;;;;;;;;;;9.89;94.14;100654.47;4788323;30;19917;-48
2023/03/10 01:21:31;;;;;;;;;;;;;;;9.82;94.15;100644.78;4788243;30;20381;-47
2023/03/10 01:23:57;;;;;;;;;;;;;;;9.84;94.25;100637.38;4787683;30;20008;-47
2023/03/10 01:26:22;;;;;;;;;;;;;;;9.78;94.78;100629.16;4787998;30;20289;-47
2023/03/10 01:28:48;;;;;;;;;;;;;;;9.81;95.06;100622.56;4788287;30;19929;-49
2023/03/10 01:31:15;;;;;;;;;;;;;;;9.87;94.92;100620.91;4780529;30;20452;-46
2023/03/10 01:33:41;;;;;;;;;;;;;;;9.98;94.27;100626.47;4780629;30;20386;-49
2023/03/10 01:36:08;;;;;;;;;;;;;;;9.97;95.01;100611.47;4785762;29;19921;-46
2023/03/10 01:38:34;;;;;;;;;;;;;;;9.90;95.67;100620.53;4785899;30;19921;-47
2023/03/10 01:41:00;;;;;;;;;;;;;;;10.03;95.18;100607.13;4787427;30;19921;-45
2023/03/10 01:43:27;;;;;;;;;;;;;;;9.92;95.80;100613.09;4787134;29;20376;-46
2023/03/10 01:45:53;;;;;;;;;;;;;;;9.85;96.01;100590.91;4787519;29;19921;-47
2023/03/10 01:48:19;;;;;;;;;;;;;;;9.83;97.11;100593.81;4786929;30;20356;-47
2023/03/10 01:50:48;;;;;;;;;;;;;;;9.75;96.72;100586.78;4775903;30;19924;-48
2023/03/10 01:53:15;;;;;;;;;;;;;;;9.89;96.87;100582.28;4787803;30;19917;-46
2023/03/10 01:55:42;;;;;;;;;;;;;;;9.99;95.73;100593.38;4787145;30;19922;-48
2023/03/10 01:58:09;;;;;;;;;;;;;;;9.92;96.30;100586.38;4787632;30;19979;-46
2023/03/10 02:00:35;;;;;;;;;;;;;;;10.07;95.78;100592.31;4776959;30;19921;-46
2023/03/10 02:03:21;;;;;;;;;;;;;;;10.18;95.42;100574.81;4769478;30;20036;-49
2023/03/10 02:05:50;;;;;;;;;;;;;;;10.18;95.75;100578.31;4769072;30;19964;-45
2023/03/10 02:08:17;;;;;;;;;;;;;;;9.99;96.76;100577.34;4768281;30;19922;-45
2023/03/10 02:10:43;;;;;;;;;;;;;;;10.09;96.56;100555.47;4772867;30;19948;-44
2023/03/10 02:13:09;;;;;;;;;;;;;;;10.13;96.95;100551.38;4769192;30;19922;-45
2023/03/10 02:15:35;;;;;;;;;;;;;;;10.01;97.23;100542.34;4785677;30;19924;-48
2023/03/10 02:18:02;;;;;;;;;;;;;;;10.14;96.85;100542.31;4787140;30;20386;-44
2023/03/10 02:20:34;;;;;;;;;;;;;;;10.04;97.35;100542.72;4787070;30;20035;-48
2023/03/10 02:23:00;;;;;;;;;;;;;;;10.08;97.48;100553.03;4787035;30;19969;-47
2023/03/10 02:25:34;;;;;;;;;;;;;;;10.18;97.31;100575.63;4786860;30;19994;-45
2023/03/10 02:28:00;;;;;;;;;;;;;;;10.32;96.66;100574.56;4771055;30;20393;-45
2023/03/10 02:30:26;;;;;;;;;;;;;;;10.25;96.36;100584.47;4769333;30;19925;-49
2023/03/10 02:32:54;;;;;;;;;;;;;;;10.44;96.17;100614.91;4780717;29;20014;-44
2023/03/10 02:35:20;;;;;;;;;;;;;;;10.49;95.86;100590.16;4786256;29;19932;-44
2023/03/10 02:37:49;;;;;;;;;;;;;;;10.54;95.97;100572.44;4787125;30;19924;-44
2023/03/10 02:40:36;;;;;;;;;;;;;;;10.31;97.43;100559.56;4785414;29;19928;-46
2023/03/10 02:43:07;;;;;;;;;;;;;;;10.37;97.36;100546.38;4783901;30;20325;-45
2023/03/10 02:45:35;;;;;;;;;;;;;;;10.43;96.58;100541.00;4778022;30;19982;-44
2023/03/10 02:48:01;;;;;;;;;;;;;;;10.32;96.98;100552.34;4785206;30;20231;-47
2023/03/10 02:50:28;;;;;;;;;;;;;;;10.36;97.44;100552.75;4786612;30;19941;-46
2023/03/10 02:53:06;;;;;;;;;;;;;;;10.31;98.06;100537.34;4786561;30;19956;-46
2023/03/10 02:55:32;;;;;;;;;;;;;;;10.16;98.90;100545.63;4787071;30;20347;-44
2023/03/10 02:58:01;;;;;;;;;;;;;;;10.10;100.00;100522.34;4780478;29;19979;-44
2023/03/10 03:00:27;;;;;;;;;;;;;;;10.24;99.52;100528.53;4781678;29;20007;-44
2023/03/10 03:02:53;;;;;;;;;;;;;;;10.39;98.30;100525.59;4786576;29;20436;-44
2023/03/10 03:05:22;;;;;;;;;;;;;;;10.33;98.53;100513.91;4789269;30;19937;-45
2023/03/10 03:07:48;;;;;;;;;;;;;;;10.25;98.63;100516.78;4774620;30;20008;-45
2023/03/10 03:10:22;;;;;;;;;;;;;;;10.08;99.58;100516.41;4789663;30;20050;-45
2023/03/10 03:12:50;;;;;;;;;;;;;;;10.16;99.45;100481.41;4788416;30;19922;-45
2023/03/10 03:15:16;;;;;;;;;;;;;;;10.22;99.67;100464.53;4789775;30;20400;-45
2023/03/10 03:17:42;;;;;;;;;;;;;;;10.20;99.19;100460.41;4790283;30;19940;-45
2023/03/10 03:20:13;;;;;;;;;;;;;;;10.17;100.00;100447.47;4783104;30;20377;-46
2023/03/10 03:22:42;;;;;;;;;;;;;;;10.12;99.75;100445.44;4788032;29;19933;-44
2023/03/10 03:25:09;;;;;;;;;;;;;;;10.05;100.00;100447.31;4789866;30;19918;-45
2023/03/10 03:27:35;;;;;;;;;;;;;;;10.21;100.00;100448.66;4788952;29;19922;-45
2023/03/10 03:30:03;;;;;;;;;;;;;;;10.13;100.00;100471.13;4788488;29;20296;-46
2023/03/10 03:32:29;;;;;;;;;;;;;;;10.14;100.00;100463.94;4772323;30;19972;-45
2023/03/10 03:34:54;;;;;;;;;;;;;;;10.21;100.00;100448.66;4777837;30;19990;-46
2023/03/10 03:37:20;;;;;;;;;;;;;;;10.21;100.00;100436.09;4783261;30;19965;-45
2023/03/10 03:39:46;;;;;;;;;;;;;;;10.22;100.00;100453.00;4775499;30;19952;-45
2023/03/10 03:42:12;;;;;;;;;;;;;;;10.27;100.00;100446.00;4789150;30;19921;-47
2023/03/10 03:44:38;;;;;;;;;;;;;;;10.24;100.00;100442.94;4789515;30;19922;-47
2023/03/10 03:47:04;;;;;;;;;;;;;;;10.41;99.01;100457.44;4789586;30;19921;-47
2023/03/10 03:49:30;;;;;;;;;;;;;;;10.23;100.00;100450.13;4789805;30;19976;-46
2023/03/10 03:51:55;;;;;;;;;;;;;;;10.31;100.00;100439.19;4789946;30;19917;-46
2023/03/10 03:54:21;;;;;;;;;;;;;;;10.46;99.36;100416.69;4773741;30;20365;-45
2023/03/10 03:56:47;;;;;;;;;;;;;;;10.32;99.54;100413.25;4789412;30;19925;-44
2023/03/10 03:59:13;;;;;;;;;;;;;;;10.40;99.85;100406.84;4789328;29;19922;-46
2023/03/10 04:01:39;;;;;;;;;;;;;;;10.26;100.00;100417.59;4789548;30;19944;-49
2023/03/10 04:04:05;;;;;;;;;;;;;;;10.36;100.00;100393.06;4773002;30;19925;-47
2023/03/10 04:06:31;;;;;;;;;;;;;;;10.37;100.00;100394.69;4773494;30;19917;-48
2023/03/10 04:08:56;;;;;;;;;;;;;;;10.21;100.00;100395.16;4789735;30;20348;-46
2023/03/10 04:11:22;;;;;;;;;;;;;;;-144.70;100.00;64190.91;4788581;29;19922;-47
2023/03/10 04:13:48;;;;;;;;;;;;;;;-144.70;100.00;64190.91;4789136;30;19918;-48
2023/03/10 04:16:14;;;;;;;;;;;;;;;-144.70;100.00;64190.91;4789090;30;19921;-48
2023/03/10 04:18:40;;;;;;;;;;;;;;;-144.70;100.00;64190.91;4789447;30;19968;-48
2023/03/10 04:21:06;;;;;;;;;;;;;;;-144.70;100.00;64190.91;4789281;30;19921;-45
2023/03/10 04:23:32;;;;;;;;;;;;;;;-144.70;100.00;64190.91;4783515;30;19917;-45
2023/03/10 04:25:57;;;;;;;;;;;;;;;-144.70;100.00;64190.91;4771373;30;19921;-47
2023/03/10 04:28:23;;;;;;;;;;;;;;;-144.70;100.00;64190.91;4771229;30;19925;-46
2023/03/10 04:30:49;;;;;;;;;;;;;;;-144.70;100.00;64190.91;4785688;29;19926;-45
2023/03/10 04:33:15;;;;;;;;;;;;;;;-144.70;100.00;64190.91;4787439;30;19921;-47
2023/03/10 04:35:42;;;;;;;;;;;;;;;-144.70;100.00;64190.91;4788015;30;19922;-45
2023/03/10 04:38:08;;;;;;;;;;;;;;;-144.70;100.00;64190.91;4785572;29;19928;-47
2023/03/10 04:40:34;;;;;;;;;;;;;;;-144.70;100.00;64190.91;4789594;29;19922;-49
2023/03/10 04:43:00;;;;;;;;;;;;;;;-144.70;100.00;64190.91;4787466;29;19925;-47
2023/03/10 04:45:26;;;;;;;;;;;;;;;-144.70;100.00;64190.91;4787663;29;19963;-47
2023/03/10 04:47:52;;;;;;;;;;;;;;;-144.70;100.00;64190.91;4785288;29;19925;-47
2023/03/10 04:50:18;;;;;;;;;;;;;;;-144.70;100.00;64190.91;4788506;30;20369;-48
2023/03/10 04:52:44;;;;;;;;;;;;;;;-144.70;100.00;64190.91;4788783;30;19928;-49
2023/03/10 04:55:11;;;;;;;;;;;;;;;-144.70;100.00;64190.91;4788898;30;19921;-50
2023/03/10 04:57:37;;;;;;;;;;;;;;;-144.70;100.00;64190.91;4788593;30;20380;-49
2023/03/10 05:00:06;;;;;;;;;;;;;;;-144.70;100.00;64190.91;4788706;30;19928;-49
2023/03/10 05:02:33;;;;;;;;;;;;;;;-144.70;100.00;64190.91;4788551;30;19918;-50
2023/03/10 05:05:00;;;;;;;;;;;;;;;-144.70;100.00;64190.91;4788495;30;20444;-48
2023/03/10 05:07:26;;;;;;;;;;;;;;;-144.70;100.00;64190.91;4788174;30;19923;-50
2023/03/10 05:09:52;;;;;;;;;;;;;;;-144.70;100.00;64190.91;4788843;30;20032;-49
2023/03/10 05:12:18;;;;;;;;;;;;;;;-144.70;100.00;64190.91;4788332;30;20432;-50
2023/03/10 05:14:44;;;;;;;;;;;;;;;-144.70;100.00;64190.91;4788324;30;20277;-51
2023/03/10 05:17:10;;;;;;;;;;;;;;;-144.70;100.00;64190.91;4788559;30;19917;-50
2023/03/10 05:19:36;;;;;;;;;;;;;;;-144.70;100.00;64190.91;4788155;30;19945;-46
2023/03/10 05:22:02;;;;;;;;;;;;;;;-144.70;100.00;64190.91;4787990;29;20433;-47
2023/03/10 05:24:28;;;;;;;;;;;;;;;-144.70;100.00;64190.91;4787721;30;19924;-50
2023/03/10 05:26:54;;;;;;;;;;;;;;;-144.70;100.00;64190.91;4788204;30;19925;-49
2023/03/10 05:29:20;;;;;;;;;;;;;;;-144.70;100.00;64190.91;4787904;30;19922;-49
2023/03/10 05:31:46;;;;;;;;;;;;;;;-144.70;100.00;64190.91;4788031;30;19921;-51
2023/03/10 05:34:15;;;;;;;;;;;;;;;-144.70;100.00;64190.91;4787585;29;19952;-50
2023/03/10 05:36:42;;;;;;;;;;;;;;;-144.70;100.00;64190.91;4788288;30;20308;-49
2023/03/10 05:39:08;;;;;;;;;;;;;;;-144.70;100.00;64190.91;4787631;30;19917;-47
2023/03/10 05:41:35;;;;;;;;;;;;;;;-144.70;100.00;64190.91;4787615;30;19924;-50
2023/03/10 05:44:01;;;;;;;;;;;;;;;-144.70;100.00;64190.91;4787239;30;19921;-47
2023/03/10 05:46:27;;;;;;;;;;;;;;;-144.70;100.00;64190.91;4787908;30;19923;-49
2023/03/10 05:48:53;;;;;;;;;;;;;;;-144.70;100.00;64190.91;4788116;30;20058;-49
2023/03/10 05:51:20;;;;;;;;;;;;;;;-144.70;100.00;64190.91;4787817;30;19924;-47
2023/03/10 05:53:46;;;;;;;;;;;;;;;-144.70;100.00;64190.91;4787360;30;19917;-49
2023/03/10 05:56:13;;;;;;;;;;;;;;;-144.70;100.00;64190.91;4787593;30;20000;-50
2023/03/10 05:58:39;;;;;;;;;;;;;;;-144.70;100.00;64190.91;4787445;30;19929;-50
2023/03/10 06:01:06;;;;;;;;;;;;;;;-144.70;100.00;64190.91;4787880;30;19918;-50
2023/03/10 06:03:32;;;;;;;;;;;;;;;-144.70;100.00;64190.91;4787259;30;19940;-48
2023/03/10 06:05:58;;;;;;;;;;;;;;;-144.70;100.00;64190.91;4773166;30;19979;-51
2023/03/10 06:08:25;;;;;;;;;;;;;;;-144.70;100.00;64190.91;4769662;30;19921;-50
2023/03/10 06:10:51;;;;;;;;;;;;;;;-144.70;100.00;64190.91;4769798;30;19925;-49
2023/03/10 06:13:20;;;;;;;;;;;;;;;-144.70;100.00;64190.91;4776275;30;19918;-50
2023/03/10 06:15:53;;;;;;;;;;;;;;;-144.70;100.00;64190.91;4787253;30;20004;-47
2023/03/10 06:18:19;;;;;;;;;;;;;;;-144.70;100.00;64190.91;4787230;30;19921;-50
2023/03/10 06:20:46;;;;;;;;;;;;;;;-144.70;100.00;64190.91;4787459;30;20369;-48
2023/03/10 06:23:13;;;;;;;;;;;;;;;-144.70;100.00;64190.91;4787039;30;19964;-49
2023/03/10 06:25:39;;;;;;;;;;;;;;;-144.70;100.00;64190.91;4787409;30;19964;-51
2023/03/10 06:28:05;;;;;;;;;;;;;;;-144.70;100.00;64190.91;4787435;30;19961;-49
2023/03/10 06:30:31;;;;;;;;;;;;;;;-144.70;100.00;64190.91;4787050;30;19917;-51
2023/03/10 06:32:58;;;;;;;;;;;;;;;-144.70;100.00;64190.91;4786436;29;20012;-47
2023/03/10 06:35:24;;;;;;;;;;;;;;;-144.70;100.00;64190.91;4787147;30;20063;-51
2023/03/10 06:37:50;;;;;;;;;;;;;;;-144.70;100.00;64190.91;4787246;30;20345;-51
2023/03/10 06:40:15;;;;;;;;;;;;;;;-144.70;100.00;64190.91;4787326;30;19922;-46
2023/03/10 06:42:42;;;;;;;;;;;;;;;-144.70;100.00;64190.91;4785937;30;20174;-51
2023/03/10 06:45:08;;;;;;;;;;;;;;;-144.70;100.00;64190.91;4772058;30;19973;-51
2023/03/10 06:47:34;;;;;;;;;;;;;;;-144.70;100.00;64190.91;4777950;30;19921;-50
2023/03/10 06:50:01;;;;;;;;;;;;;;;-144.70;100.00;64190.91;4777542;30;20308;-51
2023/03/10 06:52:27;;;;;;;;;;;;;;;-144.70;100.00;64190.91;4782733;29;20377;-47
2023/03/10 06:54:53;;;;;;;;;;;;;;;-144.70;100.00;64190.91;4783710;29;19926;-52
2023/03/10 06:57:18;;;;;;;;;;;;;;;-144.70;100.00;64190.91;4785034;30;19926;-46
2023/03/10 06:59:44;;;;;;;;;;;;;;;-144.70;100.00;64190.91;4786444;30;19953;-50
2023/03/10 07:02:11;;;;;;;;;;;;;;;-144.70;100.00;64190.91;4769545;30;19929;-50
2023/03/10 07:04:37;;;;;;;;;;;;;;;-144.70;100.00;64190.91;4780593;30;19921;-51
2023/03/10 07:07:03;;;;;;;;;;;;;;;-144.70;100.00;64190.91;4779825;30;20020;-49
2023/03/10 07:09:29;;;;;;;;;;;;;;;-144.70;100.00;64190.91;4784969;29;19972;-47
2023/03/10 07:11:55;;;;;;;;;;;;;;;-144.70;100.00;64190.91;4786748;30;19972;-47
2023/03/10 07:14:21;;;;;;;;;;;;;;;-144.70;100.00;64190.91;4786504;30;19921;-47
2023/03/10 07:16:47;;;;;;;;;;;;;;;-144.70;100.00;64190.91;4786884;30;20369;-51
2023/03/10 07:19:13;;;;;;;;;;;;;;;-144.70;100.00;64190.91;4793337;24;19992;-49
2023/03/10 07:21:39;;;;;;;;;;;;;;;-144.70;100.00;64190.91;4786164;30;20020;-48
2023/03/10 07:24:05;;;;;;;;;;;;;;;-144.70;100.00;64190.91;4772421;29;20388;-48
2023/03/10 07:26:30;;;;;;;;;;;;;;;-144.70;100.00;64190.91;4783510;30;19922;-48
2023/03/10 07:28:56;;;;;;;;;;;;;;;-144.70;100.00;64190.91;4786788;30;19928;-47
2023/03/10 07:31:22;;;;;;;;;;;;;;;-144.70;100.00;64190.91;4783725;30;20430;-47
2023/03/10 07:33:48;;;;;;;;;;;;;;;-144.70;100.00;64190.91;4768364;30;19922;-50
2023/03/10 07:36:15;;;;;;;;;;;;;;;-144.70;100.00;64190.91;4768754;30;19918;-51
2023/03/10 07:38:41;;;;;;;;;;;;;;;-144.70;100.00;64190.91;4768495;30;20361;-46
2023/03/10 07:41:13;;;;;;;;;;;;;;;-144.70;100.00;64190.91;4768736;30;19924;-49
2023/03/10 07:43:39;;;;;;;;;;;;;;;-144.70;100.00;64190.91;4768179;30;19921;-47
2023/03/10 07:46:05;;;;;;;;;;;;;;;-144.70;100.00;64190.91;4770767;30;19918;-47
2023/03/10 07:48:31;;;;;;;;;;;;;;;-144.70;100.00;64190.91;4772041;30;19918;-51
2023/03/10 07:50:58;;;;;;;;;;;;;;;-144.70;100.00;64190.91;4772483;30;20362;-49
2023/03/10 07:53:24;;;;;;;;;;;;;;;-144.70;100.00;64190.91;4772412;30;20404;-50
2023/03/10 07:55:50;;;;;;;;;;;;;;;-144.70;100.00;64190.91;4756182;30;19933;-49
2023/03/10 07:58:16;;;;;;;;;;;;;;;-144.70;100.00;64190.91;4771868;30;19917;-49
2023/03/10 08:00:41;;;;;;;;;;;;;;;-144.70;100.00;64190.91;4771932;30;19924;-50
2023/03/10 08:03:07;;;;;;;;;;;;;;;-144.70;100.00;64190.91;4771617;30;19969;-51
2023/03/10 08:05:33;;;;;;;;;;;;;;;-144.70;100.00;64190.91;4771610;30;19917;-46
2023/03/10 08:07:59;;;;;;;;;;;;;;;-144.70;100.00;64190.91;4771597;30;19944;-51
2023/03/10 08:10:25;;;;;;;;;;;;;;;-144.70;100.00;64190.91;4770159;30;19948;-49
2023/03/10 08:12:52;;;;;;;;;;;;;;;-144.70;100.00;64190.91;4771327;30;19928;-50
2023/03/10 08:15:18;;;;;;;;;;;;;;;-144.70;100.00;64190.91;4769682;30;19918;-50
2023/03/10 08:17:44;;;;;;;;;;;;;;;-144.70;100.00;64190.91;4769615;30;20270;-50
2023/03/10 08:20:10;;;;;;;;;;;;;;;-144.70;100.00;64190.91;4769507;30;20301;-46
2023/03/10 08:22:36;;;;;;;;;;;;;;;-144.70;100.00;64190.91;4771235;30;19925;-47
2023/03/10 08:25:02;;;;;;;;;;;;;;;-144.70;100.00;64190.91;4771436;30;19918;-48
2023/03/10 08:27:29;;;;;;;;;;;;;;;-144.70;100.00;64190.91;4771772;30;19918;-50
2023/03/10 08:29:54;;;;;;;;;;;;;;;-144.70;100.00;64190.91;4771087;30;19926;-47
2023/03/10 08:32:20;;;;;;;;;;;;;;;-144.70;100.00;64190.91;4770836;30;19925;-47
2023/03/10 08:34:46;;;;;;;;;;;;;;;-144.70;100.00;64190.91;4771272;30;19918;-47
2023/03/10 08:37:12;;;;;;;;;;;;;;;-144.70;100.00;64190.91;4771146;30;19917;-48
2023/03/10 08:39:38;;;;;;;;;;;;;;;-144.70;100.00;64190.91;4771429;30;20018;-50
2023/03/10 08:42:04;;;;;;;;;;;;;;;-144.70;100.00;64190.91;4770977;30;19967;-50
2023/03/10 08:44:30;;;;;;;;;;;;;;;-144.70;100.00;64190.91;4771165;30;19922;-46
2023/03/10 08:46:56;;;;;;;;;;;;;;;-144.70;100.00;64190.91;4770196;30;19918;-47
2023/03/10 08:49:21;;;;;;;;;;;;;;;-144.70;100.00;64190.91;4769552;30;20008;-47
2023/03/10 08:51:47;;;;;;;;;;;;;;;-144.70;100.00;64190.91;4750365;30;20020;-46
2023/03/10 08:54:15;;;;;;;;;;;;;;;-144.70;100.00;64190.91;4753075;30;19922;-49
2023/03/10 08:56:41;;;;;;;;;;;;;;;-144.70;100.00;64190.91;4764665;30;19932;-45
2023/03/10 08:59:07;;;;;;;;;;;;;;;-144.70;100.00;64190.91;4768403;30;19928;-47
2023/03/10 09:01:34;;;;;;;;;;;;;;;-144.70;100.00;64190.91;4769277;30;19926;-47
2023/03/10 09:04:01;;;;;;;;;;;;;;;-144.70;100.00;64190.91;4753893;30;20333;-50
2023/03/10 09:06:27;;;;;;;;;;;;;;;-144.70;100.00;64190.91;4742490;30;19922;-50
2023/03/10 09:08:53;;;;;;;;;;;;;;;-144.70;100.00;64190.91;4756454;30;20020;-46
2023/03/10 09:11:20;;;;;;;;;;;;;;;-144.70;100.00;64190.91;4753893;30;20000;-46
2023/03/10 09:13:47;;;;;;;;;;;;;;;-144.70;100.00;64190.91;4768891;30;20373;-48
2023/03/10 09:16:13;;;;;;;;;;;;;;;-144.70;100.00;64190.91;4768471;30;19922;-46
2023/03/10 09:18:40;;;;;;;;;;;;;;;-144.70;100.00;64190.91;4769455;30;19925;-47
2023/03/10 09:21:06;;;;;;;;;;;;;;;-144.70;100.00;64190.91;4769137;30;19983;-48
2023/03/10 09:23:32;;;;;;;;;;;;;;;-144.70;100.00;64190.91;4770078;30;20478;-46
2023/03/10 09:25:57;;;;;;;;;;;;;;;-144.70;100.00;64190.91;4769524;30;19922;-46
2023/03/10 09:28:23;;;;;;;;;;;;;;;-144.70;100.00;64190.91;4768808;30;19922;-48
2023/03/10 09:30:50;;;;;;;;;;;;;;;-144.70;100.00;64190.91;4768774;30;19930;-50
2023/03/10 09:33:17;;;;;;;;;;;;;;;-144.70;100.00;64190.91;4768613;30;19918;-46
2023/03/10 09:35:43;;;;;;;;;;;;;;;-144.70;100.00;64190.91;4768544;30;19921;-50
2023/03/10 09:38:09;;;;;;;;;;;;;;;-144.70;100.00;64190.91;4768368;30;20020;-46
2023/03/10 09:40:36;;;;;;;;;;;;;;;-144.70;100.00;64190.91;4770392;30;20061;-46
2023/03/10 09:43:03;;;;;;;;;;;;;;;-144.70;100.00;64190.91;4767942;30;19928;-46
2023/03/10 09:45:29;;;;;;;;;;;;;;;-144.70;100.00;64190.91;4768628;30;19936;-47
2023/03/10 09:47:55;;;;;;;;;;;;;;;-144.70;100.00;64190.91;4768940;30;19944;-47
2023/03/10 09:50:33;;;;;;;;;;;;;;;-144.70;100.00;64190.91;4770060;30;19918;-47
2023/03/10 09:53:11;;;;;;;;;;;;;;;-144.70;100.00;64190.91;4769604;30;19921;-47
2023/03/10 09:55:42;;;;;;;;;;;;;;;-144.70;100.00;64190.91;4769223;30;19956;-46
2023/03/10 09:58:11;;;;;;;;;;;;;;;-144.70;100.00;64190.91;4769732;30;19929;-46
2023/03/10 10:00:39;;;;;;;;;;;;;;;-144.70;100.00;64190.91;4770031;30;19924;-47
2023/03/10 10:03:05;;;;;;;;;;;;;;;-144.70;100.00;64190.91;4769684;30;20080;-47
2023/03/10 10:05:32;;;;;;;;;;;;;;;-144.70;100.00;64190.91;4761003;30;20008;-48
2023/03/10 10:08:00;;;;;;;;;;;;;;;-144.70;100.00;64190.91;4769253;30;20401;-46
2023/03/10 10:10:27;;;;;;;;;;;;;;;-144.70;100.00;64190.91;4769466;30;19917;-46
2023/03/10 10:12:54;;;;;;;;;;;;;;;-144.70;100.00;64190.91;4769323;30;19921;-48
2023/03/10 10:15:21;;;;;;;;;;;;;;;-144.70;100.00;64190.91;4769502;30;19922;-46
2023/03/10 10:17:53;;;;;;;;;;;;;;;-144.70;100.00;64190.91;4769470;30;19925;-48
2023/03/10 10:20:21;;;;;;;;;;;;;;;-144.70;100.00;64190.91;4769476;30;19926;-47
2023/03/10 10:22:47;;;;;;;;;;;;;;;-144.70;100.00;64190.91;4769228;30;19921;-47
2023/03/10 10:25:16;;;;;;;;;;;;;;;-144.70;100.00;64190.91;4769451;30;19914;-50
2023/03/10 10:27:44;;;;;;;;;;;;;;;-144.70;100.00;64190.91;4769295;30;19965;-48
2023/03/10 10:30:30;;;;;;;;;;;;;;;-144.70;100.00;64190.91;4769495;30;20468;-47
2023/03/10 10:32:58;;;;;;;;;;;;;;;-144.70;100.00;64190.91;4768909;30;19914;-50
2023/03/10 10:35:25;;;;;;;;;;;;;;;-144.70;100.00;64190.91;4769424;30;19925;-47
2023/03/10 10:38:17;;;;;;;;;;;;;;;-144.70;100.00;64190.91;4769445;30;19917;-50
2023/03/10 10:40:47;;;;;;;;;;;;;;;-144.70;100.00;64190.91;4767842;30;19975;-49
2023/03/10 10:43:20;;;;;;;;;;;;;;;-144.70;100.00;64190.91;4758314;30;19925;-46
2023/03/10 10:45:53;;;;;;;;;;;;;;;-144.70;100.00;64190.91;4762457;30;19917;-49
2023/03/10 10:48:39;;;;;;;;;;;;;;;-144.70;100.00;64190.91;4765401;30;20028;-50
2023/03/10 10:51:18;;;;;;;;;;;;;;;-144.70;100.00;64190.91;4768155;30;20020;-50
2023/03/10 10:53:44;;;;;;;;;;;;;;;-144.70;100.00;64190.91;4768241;30;19921;-50
2023/03/10 10:56:15;;;;;;;;;;;;;;;-144.70;100.00;64190.91;4768448;30;19929;-46
2023/03/10 10:58:42;;;;;;;;;;;;;;;-144.70;100.00;64190.91;4767611;30;19996;-50
2023/03/10 11:01:12;;;;;;;;;;;;;;;-144.70;100.00;64190.91;4769027;30;19922;-50
2023/03/10 11:03:39;;;;;;;;;;;;;;;-144.70;100.00;64190.91;4768495;30;20365;-49
2023/03/10 11:06:13;;;;;;;;;;;;;;;-144.70;100.00;64190.91;4767102;30;19922;-50
2023/03/10 11:08:41;;;;;;;;;;;;;;;-144.70;100.00;64190.91;4767528;30;20045;-48
2023/03/10 11:11:20;;;;;;;;;;;;;;;-144.70;100.00;64190.91;4769045;30;19922;-47
2023/03/10 11:13:54;;;;;;;;;;;;;;;-144.70;100.00;64190.91;4768798;30;19918;-48
2023/03/10 11:16:21;;;;;;;;;;;;;;;-144.70;100.00;64190.91;4769325;30;19925;-50
2023/03/10 11:19:00;;;;;;;;;;;;;;;-144.70;100.00;64190.91;4768709;30;20426;-50
2023/03/10 11:21:32;;;;;;;;;;;;;;;-144.70;100.00;64190.91;4772237;30;20004;-47
2023/03/10 11:24:20;;;;;;;;;;;;;;;-144.70;100.00;64190.91;4772228;30;20503;-48
2023/03/10 11:26:46;;;;;;;;;;;;;;;-144.70;100.00;64190.91;4772361;30;20019;-50
2023/03/10 11:29:18;;;;;;;;;;;;;;;-144.70;100.00;64190.91;4772238;30;19921;-46
2023/03/10 11:31:47;;;;;;;;;;;;;;;-144.70;100.00;64190.91;4772002;30;19978;-48
2023/03/10 11:34:21;;;;;;;;;;;;;;;-144.70;100.00;64190.91;4772255;30;20402;-47
2023/03/10 11:36:51;;;;;;;;;;;;;;;-144.70;100.00;64190.91;4772251;30;19921;-48
2023/03/10 11:39:17;;;;;;;;;;;;;;;-144.70;100.00;64190.91;4771802;30;19918;-47
2023/03/10 11:41:46;;;;;;;;;;;;;;;-144.70;100.00;64190.91;4772146;30;20301;-46
2023/03/10 11:44:14;;;;;;;;;;;;;;;-144.70;100.00;64190.91;4771999;30;19921;-48
2023/03/10 11:47:00;;;;;;;;;;;;;;;-144.70;100.00;64190.91;4772162;30;20392;-48
2023/03/10 11:49:29;;;;;;;;;;;;;;;-144.70;100.00;64190.91;4754160;30;19921;-51
2023/03/10 11:51:57;;;;;;;;;;;;;;;-144.70;100.00;64190.91;4754087;30;19922;-49
2023/03/10 11:54:27;;;;;;;;;;;;;;;-144.70;100.00;64190.91;4769075;30;19928;-50
2023/03/10 11:56:54;;;;;;;;;;;;;;;-144.70;100.00;64190.91;4771899;30;19917;-50
2023/03/10 11:59:24;;;;;;;;;;;;;;;-144.70;100.00;64190.91;4771781;30;19926;-49
2023/03/10 12:01:53;;;;;;;;;;;;;;;-144.70;100.00;64190.91;4771484;30;20361;-49
2023/03/10 12:04:24;;;;;;;;;;;;;;;-144.70;100.00;64190.91;4757893;30;20410;-49
2023/03/10 12:07:03;;;;;;;;;;;;;;;-144.70;100.00;64190.91;4754183;30;20011;-49
2023/03/10 12:09:29;;;;;;;;;;;;;;;-144.70;100.00;64190.91;4754899;30;19934;-48
2023/03/10 12:11:56;;;;;;;;;;;;;;;-144.70;100.00;64190.91;4771476;30;19918;-47
2023/03/10 12:14:23;;;;;;;;;;;;;;;-144.70;100.00;64190.91;4771461;30;19934;-50
2023/03/10 12:16:49;;;;;;;;;;;;;;;-144.70;100.00;64190.91;4755703;30;19914;-49
2023/03/10 12:19:15;;;;;;;;;;;;;;;-144.70;100.00;64190.91;4771122;30;19918;-50
2023/03/10 12:21:41;;;;;;;;;;;;;;;-144.70;100.00;64190.91;4771494;30;19929;-50
2023/03/10 12:24:27;;;;;;;;;;;;;;;-144.70;100.00;64190.91;4771555;30;20054;-50
2023/03/10 12:26:58;;;;;;;;;;;;;;;-144.70;100.00;64190.91;4770975;30;19925;-47